WetterOnline ( https://www.wetteronline.de )

Wetter aktuell Asbach

Aktuelles Wetter: Roleber (162m)

6-stündlich | Neueste Meldungen
Ortszeit Temperatur Wetter
So, 22.09. 8:00 13.8° C leicht bewölkt
So, 22.09. 2:00 12.5° C wolkenlos
Sa, 21.09. 20:00 16.4° C wolkenlos
Sa, 21.09. 14:00 23.2° C wolkenlos
Sa, 21.09. 8:00 9.2° C wolkenlos
Sa, 21.09. 2:00 9.3° C wolkenlos
Fr, 20.09. 20:00 13.0° C wolkenlos
Fr, 20.09. 14:00 19.4° C leicht bewölkt
Ortszeit Temperatur Wetter
So, 22.09. 10:00 18.5° C leicht bewölkt
So, 22.09. 9:40 18.1° C leicht bewölkt
So, 22.09. 9:30 17.1° C wolkig
So, 22.09. 9:20 17.1° C wolkig
So, 22.09. 9:10 16.6° C wolkig
So, 22.09. 9:00 15.4° C leicht bewölkt
So, 22.09. 8:50 15.4° C wolkig
So, 22.09. 8:30 14.6° C leicht bewölkt
So, 22.09. 8:00 13.8° C leicht bewölkt
So, 22.09. 7:30 13.6° C leicht bewölkt
So, 22.09. 7:00 13.2° C wolkenlos
Ortszeit Relative Feuchte Sichtweite
So, 22.09. 8:00 61% 70 km
So, 22.09. 2:00 60% 70 km
Sa, 21.09. 20:00 46% 70 km
Sa, 21.09. 14:00 28% 35 km
Sa, 21.09. 8:00 64% 50 km
Sa, 21.09. 2:00 66% 60 km
Fr, 20.09. 20:00 53% 30 km
Fr, 20.09. 14:00 33% 40 km
Ortszeit Relative Feuchte Sichtweite
So, 22.09. 10:00 48% 45 km
So, 22.09. 9:40 50% -
So, 22.09. 9:30 52% 65 km
So, 22.09. 9:20 52% -
So, 22.09. 9:10 53% -
So, 22.09. 9:00 56% 35 km
So, 22.09. 8:50 56% -
So, 22.09. 8:30 59% 55 km
So, 22.09. 8:00 61% 70 km
So, 22.09. 7:30 61% 70 km
So, 22.09. 7:00 62% 70 km
Ortszeit Niederschlagsmenge Niederschlagsart
So, 22.09. 8:00 0.0 l/m2 in 12 Std. -
So, 22.09. 2:00 0.0 l/m2 in 6 Std. -
Sa, 21.09. 20:00 0.0 l/m2 in 12 Std. -
Sa, 21.09. 14:00 0.0 l/m2 in 6 Std. -
Sa, 21.09. 8:00 0.0 l/m2 in 12 Std. -
Sa, 21.09. 2:00 0.0 l/m2 in 6 Std. -
Fr, 20.09. 20:00 0.0 l/m2 in 12 Std. -
Fr, 20.09. 14:00 0.0 l/m2 in 6 Std. -
Ortszeit Niederschlagsmenge Niederschlagsart
So, 22.09. 10:00 0.0 l/m2 in 1 Std. -
So, 22.09. 9:40 keine Meldung -
So, 22.09. 9:30 0.0 l/m2 in 1 Std. -
So, 22.09. 9:20 keine Meldung -
So, 22.09. 9:10 keine Meldung -
So, 22.09. 9:00 0.0 l/m2 in 1 Std. -
So, 22.09. 8:50 keine Meldung -
So, 22.09. 8:30 0.0 l/m2 in 1 Std. -
So, 22.09. 8:00 0.0 l/m2 in 1 Std. -
So, 22.09. 7:30 0.0 l/m2 in 1 Std. -
So, 22.09. 7:00 0.0 l/m2 in 1 Std. -
Ortszeit Stärke Spitze Richtung
km/h Bft. km/h Grad Sektor
So, 22.09. 8:00 11 2 22 100° O
So, 22.09. 2:00 11 2 25 110° O
Sa, 21.09. 20:00 11 2 32 120° SO
Sa, 21.09. 14:00 17 3 37 110° O
Sa, 21.09. 8:00 11 2 22 100° O
Sa, 21.09. 2:00 13 3 19 110° O
Fr, 20.09. 20:00 7 2 25 150° SO
Fr, 20.09. 14:00 11 2 25 120° SO
Ortszeit Stärke Spitze Richtung
km/h Bft. km/h Grad Sektor
So, 22.09. 10:00 11 2 24 110° O
So, 22.09. 9:40 14 3 - 120° SO
So, 22.09. 9:30 13 3 22 110° O
So, 22.09. 9:20 13 3 - 110° O
So, 22.09. 9:10 11 2 - 110° O
So, 22.09. 9:00 14 3 25 110° O
So, 22.09. 8:50 14 3 - 110° O
So, 22.09. 8:30 11 2 18 90° O
So, 22.09. 8:00 11 2 20 100° O
So, 22.09. 7:30 11 2 18 110° O
So, 22.09. 7:00 11 2 14 90° O
Ortszeit Untergrenze Bedeckung Gattung
total tief tief mittel hoch
So, 22.09. 8:00 10500 m 6/8 0/8 - - -
So, 22.09. 2:00 - 0/8 0/8 - - -
Sa, 21.09. 20:00 - 0/8 0/8 - - -
Sa, 21.09. 14:00 - 0/8 0/8 - - -
Sa, 21.09. 8:00 - 0/8 0/8 - - -
Sa, 21.09. 2:00 - 0/8 0/8 - - -
Fr, 20.09. 20:00 - 0/8 0/8 - - -
Fr, 20.09. 14:00 10500 m 5/8 0/8 - - -
Ortszeit Bedeckungsgrad in Achtel und Wolkenuntergrenze
So, 22.09. 10:00 3(10500m) 3(12000m)
So, 22.09. 9:40 3(12000m)
So, 22.09. 9:30 3(10500m) 8(12000m)
So, 22.09. 9:20 3(10500m) 8(12000m)
So, 22.09. 9:10 4(10500m) 7(12000m)
So, 22.09. 9:00 7(12000m)
So, 22.09. 8:50 7(12000m)
So, 22.09. 8:30 1(10500m) 6(12000m)
So, 22.09. 8:00 1(10500m) 3(10500m) 6(12000m)
So, 22.09. 7:30 5(10500m)
So, 22.09. 7:00 keine Wolken
Ortszeit Luftdruck NN (hPa) Tendenz (hPa in 3 Std.)
So, 22.09. 8:00 1011 - 1,0
So, 22.09. 2:00 1013 - 1,7
Sa, 21.09. 20:00 1015 - 1,1
Sa, 21.09. 14:00 1019 - 1,8
Sa, 21.09. 8:00 1022 - 0,7
Sa, 21.09. 2:00 1024 - 1,2
Fr, 20.09. 20:00 1026 - 0,8
Fr, 20.09. 14:00 1028 - 1,5
Ortszeit Luftdruck NN (hPa) Tendenz (hPa in 3 Std.)
So, 22.09. 10:00 1011 0,0
So, 22.09. 9:40 1011 keine Meldung
So, 22.09. 9:30 1011 - 0,3
So, 22.09. 9:20 1011 keine Meldung
So, 22.09. 9:10 1011 keine Meldung
So, 22.09. 9:00 1011 - 0,4
So, 22.09. 8:50 1011 keine Meldung
So, 22.09. 8:30 1011 - 0,8
So, 22.09. 8:00 1011 - 1,0
So, 22.09. 7:30 1011 - 1,1
So, 22.09. 7:00 1012 - 1,3
Ortszeit Schneehöhe (cm)
So, 22.09. 8:00 -
So, 22.09. 2:00 -
Sa, 21.09. 20:00 -
Sa, 21.09. 14:00 -
Sa, 21.09. 8:00 -
Sa, 21.09. 2:00 -
Fr, 20.09. 20:00 -
Fr, 20.09. 14:00 -
Ortszeit Schneehöhe (cm)
So, 22.09. 10:00 -
So, 22.09. 9:40 -
So, 22.09. 9:30 -
So, 22.09. 9:20 -
So, 22.09. 9:10 -
So, 22.09. 9:00 -
So, 22.09. 8:50 -
So, 22.09. 8:30 -
So, 22.09. 8:00 -
So, 22.09. 7:30 -
So, 22.09. 7:00 -
Link zu dieser Seite / Seite empfehlen

Das Wetter in ...